Terminal Aerodrome Forecast
Issued by NWS

Home | Current Version | Previous Version | Text Only | Print | Product List | Glossary On
Versions: 1 2 3 4 5 6 7 8 9 10 11 12 13 14 15 16 17 18 19 20 21 22 23 24 25 26 27 28 29
000
FTUS45 KGJT 191126
TAFTEX
TAF
KTEX 191126Z 1912/2012 14007KT P6SM FEW250 WS020/19040KT
     FM191700 16015G30KT P6SM FEW110 SCT200
     FM191900 16018G41KT P6SM FEW100 BKN250
     FM200000 17014G32KT P6SM VCSH BKN070 OVC090
     FM200400 19012G23KT P6SM VCSH BKN040 OVC080 WS020/18045KT
     FM200600 20008KT P6SM VCSH BKN040 OVC060=

USA.gov is the U.S. government's official web portal to all federal, state and local government web resources and services.